createdAt,value
2017-11-25T00:00:43.733Z,39.87
2017-11-25T00:03:12.051Z,40.70
2017-11-25T00:05:40.484Z,39.63
2017-11-25T00:08:08.868Z,34.97
2017-11-25T00:10:37.961Z,32.17
2017-11-25T00:13:07.016Z,32.10
2017-11-25T00:15:35.399Z,35.13
2017-11-25T00:18:03.687Z,33.07
2017-11-25T00:20:32.085Z,38.03
2017-11-25T00:23:01.162Z,37.23
2017-11-25T00:25:30.226Z,38.03
2017-11-25T00:27:58.563Z,36.17
2017-11-25T00:30:26.871Z,35.43
2017-11-25T00:32:55.195Z,37.87
2017-11-25T00:35:24.280Z,38.97
2017-11-25T00:37:53.204Z,38.33
2017-11-25T00:40:21.508Z,37.30
2017-11-25T00:42:49.941Z,41.47
2017-11-25T00:45:18.263Z,38.70
2017-11-25T00:47:46.595Z,39.03
2017-11-25T00:50:14.940Z,42.10
2017-11-25T00:52:43.242Z,39.67
2017-11-25T00:55:12.339Z,38.63
2017-11-25T00:57:41.405Z,46.40
2017-11-25T01:00:09.724Z,41.23
2017-11-25T01:02:38.774Z,51.97
2017-11-25T01:05:07.109Z,53.27
2017-11-25T01:07:35.461Z,44.97
2017-11-25T01:10:03.781Z,53.13
2017-11-25T01:12:32.099Z,42.03
2017-11-25T01:15:00.399Z,51.67
2017-11-25T01:17:28.764Z,45.27
2017-11-25T01:19:57.830Z,41.93
2017-11-25T01:22:26.162Z,39.50
2017-11-25T01:24:54.475Z,47.47
2017-11-25T01:27:22.866Z,46.57
2017-11-25T01:29:51.174Z,40.33
2017-11-25T01:32:20.272Z,33.70
2017-11-25T01:34:49.363Z,40.53
2017-11-25T01:37:17.691Z,41.60
2017-11-25T01:39:45.980Z,44.70
2017-11-25T01:42:14.262Z,43.10
2017-11-25T01:44:43.379Z,38.77
2017-11-25T01:47:12.451Z,42.43
2017-11-25T01:49:40.772Z,38.70
2017-11-25T01:52:09.064Z,44.90
2017-11-25T01:54:37.420Z,53.60
2017-11-25T01:57:05.739Z,49.70
2017-11-25T01:59:34.068Z,58.70
2017-11-25T02:02:03.136Z,63.03
2017-11-25T02:04:31.445Z,50.83
2017-11-25T02:06:59.760Z,53.30
2017-11-25T02:09:28.119Z,65.27
2017-11-25T02:11:56.476Z,62.60
2017-11-25T02:14:24.819Z,57.53
2017-11-25T02:16:53.132Z,56.33
2017-11-25T02:19:21.486Z,55.07
2017-11-25T02:21:49.800Z,57.07
2017-11-25T02:24:18.139Z,58.33
2017-11-25T02:26:46.456Z,52.67
2017-11-25T02:29:14.765Z,50.20
2017-11-25T02:31:43.672Z,54.70
2017-11-25T02:34:11.973Z,58.87
2017-11-25T02:36:40.325Z,62.93
2017-11-25T02:39:08.648Z,45.33
2017-11-25T02:41:36.949Z,47.30
2017-11-25T02:44:05.292Z,50.20
2017-11-25T02:46:33.579Z,53.77
2017-11-25T02:49:01.905Z,56.60
2017-11-25T02:51:30.200Z,55.40
2017-11-25T02:53:59.269Z,43.97
2017-11-25T02:56:27.596Z,44.60
2017-11-25T02:58:55.911Z,46.47
2017-11-25T03:01:24.237Z,52.13
2017-11-25T03:03:52.567Z,49.83
2017-11-25T03:06:20.881Z,44.93
2017-11-25T03:08:49.981Z,43.77
2017-11-25T03:11:19.056Z,48.33
2017-11-25T03:13:47.354Z,41.97
2017-11-25T03:16:16.459Z,41.43
2017-11-25T03:18:45.512Z,47.43
2017-11-25T03:21:13.796Z,46.87
2017-11-25T03:23:42.891Z,49.40
2017-11-25T03:26:11.283Z,55.83
2017-11-25T03:28:40.483Z,47.33
2017-11-25T03:31:09.706Z,55.47
2017-11-25T03:33:38.005Z,44.30
2017-11-25T03:36:06.291Z,50.80
2017-11-25T03:38:34.595Z,52.27
2017-11-25T03:41:02.888Z,52.37
2017-11-25T03:43:31.228Z,52.67
2017-11-25T03:46:00.007Z,54.70
2017-11-25T03:48:28.292Z,47.03
2017-11-25T03:50:56.605Z,49.63
2017-11-25T03:53:25.670Z,47.07
2017-11-25T03:55:54.010Z,49.37
2017-11-25T03:58:22.293Z,54.00
2017-11-25T04:00:50.682Z,51.73
2017-11-25T04:03:18.972Z,50.83
2017-11-25T04:05:47.278Z,42.00
2017-11-25T04:08:16.340Z,51.20
2017-11-25T04:10:44.656Z,48.70
2017-11-25T04:13:12.994Z,49.60
2017-11-25T04:15:41.402Z,45.90
2017-11-25T04:18:10.495Z,45.77
2017-11-25T04:20:38.787Z,42.93
2017-11-25T04:23:07.865Z,48.33
2017-11-25T04:25:36.932Z,46.97
2017-11-25T04:28:05.268Z,45.10
2017-11-25T04:30:33.571Z,39.23
2017-11-25T04:33:01.888Z,49.90
2017-11-25T04:35:30.959Z,45.00
2017-11-25T04:37:59.359Z,50.00
2017-11-25T04:40:27.738Z,47.40
2017-11-25T04:42:56.795Z,49.70
2017-11-25T04:45:25.214Z,55.97
2017-11-25T04:47:54.998Z,58.57
2017-11-25T04:50:23.345Z,53.57
2017-11-25T04:52:51.640Z,54.87
2017-11-25T04:55:19.945Z,52.07
2017-11-25T04:57:49.016Z,54.43
2017-11-25T05:00:18.117Z,54.60
2017-11-25T05:02:46.410Z,47.93
2017-11-25T05:05:14.748Z,51.67
2017-11-25T05:07:43.043Z,47.73
2017-11-25T05:10:11.340Z,57.60
2017-11-25T05:12:40.435Z,50.43
2017-11-25T05:15:09.506Z,48.43
2017-11-25T05:17:37.852Z,57.47
2017-11-25T05:20:06.165Z,53.40
2017-11-25T05:22:34.501Z,56.60
2017-11-25T05:25:02.806Z,58.03
2017-11-25T05:27:31.329Z,57.27
2017-11-25T05:30:00.409Z,58.27
2017-11-25T05:32:29.480Z,50.93
2017-11-25T05:34:58.629Z,61.73
2017-11-25T05:37:27.704Z,53.13
2017-11-25T05:39:56.910Z,51.43
2017-11-25T05:42:25.288Z,57.40
2017-11-25T05:44:53.659Z,53.03
2017-11-25T05:47:23.016Z,46.30
2017-11-25T05:49:51.340Z,47.33
2017-11-25T05:52:20.401Z,55.00
2017-11-25T05:54:48.804Z,46.47
2017-11-25T05:57:17.091Z,39.90
2017-11-25T05:59:46.176Z,47.50
2017-11-25T06:02:14.554Z,40.40
2017-11-25T06:04:42.842Z,51.23
2017-11-25T06:07:11.911Z,42.83
2017-11-25T06:09:41.021Z,46.07
2017-11-25T06:12:10.136Z,51.40
2017-11-25T06:14:38.439Z,46.03
2017-11-25T06:17:06.728Z,54.30
2017-11-25T06:19:35.069Z,57.07
2017-11-25T06:22:03.374Z,50.40
2017-11-25T06:24:31.724Z,57.60
2017-11-25T06:27:00.049Z,49.30
2017-11-25T06:29:28.383Z,59.07
2017-11-25T06:31:56.671Z,50.87
2017-11-25T06:34:25.007Z,44.03
2017-11-25T06:36:54.265Z,41.87
2017-11-25T06:39:22.591Z,39.13
2017-11-25T06:41:50.913Z,42.87
2017-11-25T06:44:19.217Z,44.20
2017-11-25T06:46:47.538Z,47.07
2017-11-25T06:49:15.857Z,50.23
2017-11-25T06:51:44.195Z,33.60
2017-11-25T06:54:13.232Z,38.97
2017-11-25T06:56:41.523Z,37.93
2017-11-25T06:59:10.615Z,36.43
2017-11-25T07:01:39.724Z,40.07
2017-11-25T07:04:08.817Z,28.60
2017-11-25T07:06:37.139Z,28.57
2017-11-25T07:09:05.443Z,28.70
2017-11-25T07:11:33.772Z,31.97
2017-11-25T07:14:02.101Z,36.13
2017-11-25T07:16:30.397Z,34.07
2017-11-25T07:18:58.744Z,38.57
2017-11-25T07:21:27.025Z,28.27
2017-11-25T07:23:55.343Z,26.63
2017-11-25T07:26:23.679Z,38.73
2017-11-25T07:28:52.104Z,42.57
2017-11-25T07:31:21.198Z,45.97
2017-11-25T07:33:49.528Z,43.80
2017-11-25T07:36:17.821Z,36.10
2017-11-25T07:38:46.224Z,39.03
2017-11-25T07:41:14.527Z,34.63
2017-11-25T07:43:42.979Z,38.43
2017-11-25T07:46:11.306Z,33.80
2017-11-25T07:48:39.667Z,31.70
2017-11-25T07:51:07.972Z,38.60
2017-11-25T07:53:36.288Z,43.40
2017-11-25T07:56:04.605Z,35.00
2017-11-25T07:58:32.959Z,29.93
2017-11-25T08:01:01.273Z,23.93
2017-11-25T08:03:29.579Z,26.53
2017-11-25T08:05:59.568Z,14.13
2017-11-25T08:08:27.866Z,14.27
2017-11-25T08:10:56.969Z,13.43
2017-11-25T08:13:25.751Z,16.30
2017-11-25T08:15:54.072Z,13.27
2017-11-25T08:18:22.403Z,21.37
2017-11-25T08:20:50.721Z,36.30
2017-11-25T08:23:19.007Z,39.90
2017-11-25T08:25:47.325Z,29.00
2017-11-25T08:28:15.604Z,9.57
2017-11-25T08:30:44.704Z,9.20
2017-11-25T08:33:13.018Z,10.77
2017-11-25T08:35:41.344Z,10.00
2017-11-25T08:38:10.440Z,11.27
2017-11-25T08:40:38.827Z,10.93
2017-11-25T08:43:07.132Z,12.20
2017-11-25T08:45:35.456Z,11.73
2017-11-25T08:48:03.792Z,10.60
2017-11-25T08:50:32.107Z,12.47
2017-11-25T08:53:00.407Z,36.23
2017-11-25T08:55:29.537Z,12.13
2017-11-25T08:57:57.876Z,11.73
2017-11-25T09:00:26.160Z,11.73
2017-11-25T09:02:55.254Z,15.47
2017-11-25T09:05:23.560Z,33.13
2017-11-25T09:07:51.888Z,11.27
2017-11-25T09:10:20.241Z,11.60
2017-11-25T09:12:48.540Z,11.27
2017-11-25T09:15:16.876Z,41.13
2017-11-25T09:17:45.201Z,11.30
2017-11-25T09:20:14.312Z,30.33
2017-11-25T09:22:43.398Z,29.53
2017-11-25T09:25:11.676Z,27.43
2017-11-25T09:27:40.037Z,34.80
2017-11-25T09:30:08.332Z,32.03
2017-11-25T09:32:37.428Z,34.60
2017-11-25T09:35:05.773Z,36.67
2017-11-25T09:37:34.092Z,33.50
2017-11-25T09:40:02.397Z,33.47
2017-11-25T09:42:30.725Z,36.60
2017-11-25T09:44:59.054Z,30.03
2017-11-25T09:47:27.355Z,22.00
2017-11-25T09:49:55.692Z,33.40
2017-11-25T09:52:23.988Z,36.30
2017-11-25T09:54:52.380Z,33.43
2017-11-25T09:57:21.486Z,30.17
2017-11-25T09:59:49.855Z,25.30
2017-11-25T10:02:18.179Z,34.67
2017-11-25T10:04:46.491Z,33.43
2017-11-25T10:07:14.792Z,37.70
2017-11-25T10:09:43.150Z,28.47
2017-11-25T10:12:11.447Z,37.30
2017-11-25T10:14:39.783Z,25.17
2017-11-25T10:17:08.144Z,21.93
2017-11-25T10:19:37.208Z,19.40
2017-11-25T10:22:05.531Z,22.87
2017-11-25T10:24:33.824Z,20.60
2017-11-25T10:27:02.272Z,29.93
2017-11-25T10:29:30.574Z,33.33
2017-11-25T10:31:58.897Z,26.80
2017-11-25T10:34:27.196Z,37.77
2017-11-25T10:36:55.516Z,27.00
2017-11-25T10:39:23.812Z,27.43
2017-11-25T10:41:52.157Z,28.20
2017-11-25T10:44:20.452Z,29.60
2017-11-25T10:46:48.765Z,28.20
2017-11-25T10:49:17.197Z,27.50
2017-11-25T10:51:45.515Z,32.80
2017-11-25T10:54:13.873Z,32.33
2017-11-25T10:56:42.270Z,30.80
2017-11-25T10:59:10.674Z,26.90
2017-11-25T11:01:39.048Z,25.83
2017-11-25T11:04:08.267Z,20.40
2017-11-25T11:06:36.663Z,23.70
2017-11-25T11:09:05.004Z,14.10
2017-11-25T11:11:33.359Z,18.13
2017-11-25T11:14:01.691Z,22.13
2017-11-25T11:16:30.110Z,11.63
2017-11-25T11:18:58.417Z,22.23
2017-11-25T11:21:26.752Z,26.93
2017-11-25T11:23:55.092Z,15.27
2017-11-25T11:26:23.459Z,15.80
2017-11-25T11:28:51.761Z,14.20
2017-11-25T11:31:20.089Z,16.90
2017-11-25T11:33:49.611Z,21.43
2017-11-25T11:36:18.051Z,11.83
2017-11-25T11:38:47.155Z,9.20
2017-11-25T11:41:15.468Z,22.47
2017-11-25T11:43:43.787Z,21.77
2017-11-25T11:46:12.080Z,17.67
2017-11-25T11:48:41.482Z,16.10
2017-11-25T11:51:09.791Z,15.90
2017-11-25T11:53:38.875Z,18.33
2017-11-25T11:56:07.176Z,15.70
2017-11-25T11:58:35.522Z,13.50
2017-11-25T12:01:04.132Z,14.17
2017-11-25T12:03:32.438Z,15.80
2017-11-25T12:06:00.753Z,16.90
2017-11-25T12:08:29.836Z,18.57
2017-11-25T12:10:58.172Z,21.77
2017-11-25T12:13:26.472Z,27.30
2017-11-25T12:15:54.817Z,23.77
2017-11-25T12:18:23.113Z,25.97
2017-11-25T12:20:51.417Z,24.47
2017-11-25T12:23:19.749Z,21.63
2017-11-25T12:25:48.048Z,26.90
2017-11-25T12:28:16.370Z,22.87
2017-11-25T12:30:45.451Z,16.60
2017-11-25T12:33:14.562Z,21.03
2017-11-25T12:35:42.844Z,20.47
2017-11-25T12:38:11.918Z,26.33
2017-11-25T12:40:40.239Z,27.87
2017-11-25T12:43:08.527Z,29.10
2017-11-25T12:45:37.340Z,26.70
2017-11-25T12:48:05.639Z,27.20
2017-11-25T12:50:33.972Z,33.00
2017-11-25T12:53:02.324Z,28.87
2017-11-25T12:55:30.635Z,30.00
2017-11-25T12:57:58.968Z,28.97
2017-11-25T13:00:27.339Z,29.50
2017-11-25T13:02:55.635Z,27.30
2017-11-25T13:05:24.686Z,25.00
2017-11-25T13:07:52.990Z,24.23
2017-11-25T13:10:22.058Z,26.70
2017-11-25T13:12:50.359Z,31.77
2017-11-25T13:15:19.407Z,26.10
2017-11-25T13:17:47.716Z,25.90
2017-11-25T13:20:16.000Z,32.77
2017-11-25T13:22:44.324Z,47.33
2017-11-25T13:25:12.656Z,31.00
2017-11-25T13:27:41.782Z,31.57
2017-11-25T13:30:10.089Z,29.30
2017-11-25T13:32:38.356Z,29.37
2017-11-25T13:35:06.687Z,29.20
2017-11-25T13:37:35.000Z,33.30
2017-11-25T13:40:03.326Z,31.47
2017-11-25T13:42:31.656Z,30.10
2017-11-25T13:45:00.113Z,28.37
2017-11-25T13:47:28.397Z,35.03
2017-11-25T13:49:56.744Z,36.20
2017-11-25T13:52:25.801Z,27.53
2017-11-25T13:54:54.153Z,28.63
2017-11-25T13:57:22.464Z,30.70
2017-11-25T13:59:50.745Z,39.23
2017-11-25T14:02:19.068Z,36.20
2017-11-25T14:04:47.365Z,33.83
2017-11-25T14:07:15.688Z,41.17
2017-11-25T14:09:43.998Z,39.37
2017-11-25T14:12:12.321Z,36.37
2017-11-25T14:14:40.606Z,37.50
2017-11-25T14:17:09.742Z,41.47
2017-11-25T14:19:39.291Z,46.43
2017-11-25T14:22:07.652Z,49.57
2017-11-25T14:24:37.207Z,49.53
2017-11-25T14:27:05.738Z,48.47
2017-11-25T14:29:34.046Z,46.07
2017-11-25T14:32:02.362Z,52.00
2017-11-25T14:34:30.707Z,42.77
2017-11-25T14:36:59.080Z,45.70
2017-11-25T14:39:27.406Z,51.77
2017-11-25T14:41:55.700Z,41.77
2017-11-25T14:44:23.995Z,48.37
2017-11-25T14:46:52.336Z,48.77
2017-11-25T14:49:20.671Z,37.90
2017-11-25T14:51:49.393Z,39.63
2017-11-25T14:54:17.705Z,43.40
2017-11-25T14:56:46.113Z,39.03
2017-11-25T14:59:15.254Z,40.77
2017-11-25T15:01:44.403Z,39.20
2017-11-25T15:04:12.863Z,38.90
2017-11-25T15:06:41.314Z,39.00
2017-11-25T15:09:09.770Z,37.80
2017-11-25T15:11:38.468Z,34.93
2017-11-25T15:14:06.781Z,32.53
2017-11-25T15:16:35.105Z,33.10
2017-11-25T15:19:04.203Z,33.90
2017-11-25T15:21:32.551Z,36.23
2017-11-25T15:24:01.656Z,37.90
2017-11-25T15:26:30.793Z,27.47
2017-11-25T15:28:59.142Z,34.80
2017-11-25T15:31:27.607Z,53.60
2017-11-25T15:33:55.935Z,52.00
2017-11-25T15:36:24.253Z,44.63
2017-11-25T15:38:53.348Z,38.00
2017-11-25T15:41:21.752Z,30.90
2017-11-25T15:43:50.028Z,28.67
2017-11-25T15:46:19.536Z,29.27
2017-11-25T15:48:47.842Z,34.10
2017-11-25T15:51:17.113Z,33.00
2017-11-25T15:53:46.299Z,29.50
2017-11-25T15:56:15.423Z,31.60
2017-11-25T15:58:43.764Z,36.40
2017-11-25T16:01:12.945Z,20.23
2017-11-25T16:03:41.264Z,19.73
2017-11-25T16:06:09.573Z,45.47
2017-11-25T16:08:37.937Z,50.27
2017-11-25T16:11:06.315Z,41.80
2017-11-25T16:13:34.623Z,22.80
2017-11-25T16:16:03.796Z,23.97
2017-11-25T16:18:32.138Z,24.67
2017-11-25T16:21:00.555Z,36.63
2017-11-25T16:23:28.896Z,40.10
2017-11-25T16:25:57.288Z,41.67
2017-11-25T16:28:25.638Z,42.37
2017-11-25T16:30:54.058Z,46.27
2017-11-25T16:33:22.551Z,43.17
2017-11-25T16:35:50.956Z,41.57
2017-11-25T16:38:19.250Z,44.97
2017-11-25T16:40:47.740Z,45.93
2017-11-25T16:43:16.088Z,40.40
2017-11-25T16:45:45.204Z,43.67
2017-11-25T16:48:15.492Z,36.60
2017-11-25T16:50:44.628Z,43.17
2017-11-25T16:53:12.946Z,39.10
2017-11-25T16:55:41.329Z,42.20
2017-11-25T16:58:09.624Z,40.87
2017-11-25T17:00:37.939Z,40.33
2017-11-25T17:03:06.412Z,41.40
2017-11-25T17:05:35.478Z,38.87
2017-11-25T17:08:03.839Z,39.57
2017-11-25T17:10:32.988Z,40.50
2017-11-25T17:13:02.055Z,39.80
2017-11-25T17:15:31.248Z,33.30
2017-11-25T17:17:59.563Z,36.47
2017-11-25T17:20:27.956Z,42.17
2017-11-25T17:22:56.301Z,42.10
2017-11-25T17:25:25.364Z,36.93
2017-11-25T17:27:53.694Z,41.37
2017-11-25T17:30:22.106Z,37.10
2017-11-25T17:32:50.395Z,30.50
2017-11-25T17:35:18.830Z,32.73
2017-11-25T17:37:47.972Z,32.33
2017-11-25T17:40:16.552Z,35.30
2017-11-25T17:42:44.933Z,42.50
2017-11-25T17:45:13.465Z,35.20
2017-11-25T17:47:41.775Z,36.73
2017-11-25T17:50:10.137Z,39.80
2017-11-25T17:52:38.452Z,32.07
2017-11-25T17:55:06.856Z,41.57
2017-11-25T17:57:35.179Z,42.43
2017-11-25T18:00:03.510Z,43.70
2017-11-25T18:02:31.866Z,36.87
2017-11-25T18:05:00.163Z,32.20
2017-11-25T18:07:29.251Z,41.00
2017-11-25T18:09:58.311Z,40.63
2017-11-25T18:12:26.639Z,30.73
2017-11-25T18:14:54.943Z,41.20
2017-11-25T18:17:23.273Z,37.30
2017-11-25T18:19:51.663Z,36.57
2017-11-25T18:22:20.771Z,40.53
2017-11-25T18:24:49.064Z,40.93
2017-11-25T18:27:17.356Z,42.70
2017-11-25T18:29:45.674Z,41.53
2017-11-25T18:32:13.996Z,40.97
2017-11-25T18:34:42.332Z,37.63
2017-11-25T18:37:10.644Z,43.90
2017-11-25T18:39:38.964Z,37.40
2017-11-25T18:42:07.255Z,44.67
2017-11-25T18:44:36.350Z,40.50
2017-11-25T18:47:04.667Z,47.90
2017-11-25T18:49:33.007Z,45.20
2017-11-25T18:52:01.350Z,44.43
2017-11-25T18:54:29.661Z,38.73
2017-11-25T18:56:57.968Z,41.20
2017-11-25T18:59:26.263Z,39.20
2017-11-25T19:01:54.612Z,32.33
2017-11-25T19:04:22.922Z,43.33
2017-11-25T19:06:51.224Z,36.60
2017-11-25T19:09:19.511Z,33.93
2017-11-25T19:11:47.820Z,37.73
2017-11-25T19:14:16.120Z,36.87
2017-11-25T19:16:44.449Z,40.47
2017-11-25T19:19:12.762Z,39.30
2017-11-25T19:21:41.078Z,32.07
2017-11-25T19:24:09.406Z,51.97
2017-11-25T19:26:37.711Z,45.27
2017-11-25T19:29:06.040Z,41.33
2017-11-25T19:31:34.355Z,38.53
2017-11-25T19:34:02.689Z,39.60
2017-11-25T19:36:31.010Z,39.20
2017-11-25T19:38:59.393Z,41.00
2017-11-25T19:41:27.699Z,47.17
2017-11-25T19:43:56.787Z,49.50
2017-11-25T19:46:25.898Z,39.40
2017-11-25T19:48:54.984Z,41.77
2017-11-25T19:51:24.079Z,40.17
2017-11-25T19:53:52.388Z,44.23
2017-11-25T19:56:20.831Z,40.53
2017-11-25T19:58:49.189Z,46.30
2017-11-25T20:01:17.496Z,40.37
2017-11-25T20:03:45.797Z,45.60
2017-11-25T20:06:14.884Z,46.57
2017-11-25T20:08:43.927Z,50.20
2017-11-25T20:11:12.242Z,50.03
2017-11-25T20:13:40.563Z,50.53
2017-11-25T20:16:08.875Z,53.77
2017-11-25T20:18:37.179Z,44.70
2017-11-25T20:21:06.284Z,48.30
2017-11-25T20:23:34.579Z,49.47
2017-11-25T20:26:02.872Z,48.00
2017-11-25T20:28:31.192Z,45.83
2017-11-25T20:30:59.588Z,22.40
2017-11-25T20:33:28.675Z,26.67
2017-11-25T20:35:57.732Z,31.43
2017-11-25T20:38:26.083Z,29.77
2017-11-25T20:40:54.408Z,51.67
2017-11-25T20:43:23.500Z,30.63
2017-11-25T20:45:51.840Z,51.73
2017-11-25T20:48:20.123Z,53.30
2017-11-25T20:50:48.452Z,53.47
2017-11-25T20:53:17.508Z,58.37
2017-11-25T20:55:45.837Z,50.57
2017-11-25T20:58:14.131Z,93.23
2017-11-25T21:00:42.428Z,88.63
2017-11-25T21:03:10.740Z,81.63
2017-11-25T21:05:39.040Z,77.10
2017-11-25T21:08:08.115Z,81.33
2017-11-25T21:10:36.387Z,76.67
2017-11-25T21:13:04.694Z,99.20
2017-11-25T21:15:33.012Z,100.03
2017-11-25T21:18:01.367Z,87.80
2017-11-25T21:20:29.669Z,111.77
2017-11-25T21:22:58.001Z,100.37
2017-11-25T21:25:26.304Z,106.23
2017-11-25T21:27:54.634Z,101.47
2017-11-25T21:30:23.732Z,98.57
2017-11-25T21:32:52.820Z,105.93
2017-11-25T21:35:21.924Z,111.63
2017-11-25T21:37:51.000Z,88.50
2017-11-25T21:40:20.101Z,89.20
2017-11-25T21:42:49.191Z,89.03
2017-11-25T21:45:18.315Z,93.13
2017-11-25T21:47:47.376Z,100.00
2017-11-25T21:50:15.677Z,97.60
2017-11-25T21:52:44.016Z,86.10
2017-11-25T21:55:12.316Z,98.07
2017-11-25T21:57:40.657Z,86.07
2017-11-25T22:00:08.964Z,93.80
2017-11-25T22:02:37.452Z,95.83
2017-11-25T22:05:06.552Z,87.13
2017-11-25T22:07:35.627Z,37.67
2017-11-25T22:10:03.952Z,38.57
2017-11-25T22:12:32.267Z,73.70
2017-11-25T22:15:00.581Z,89.70
2017-11-25T22:17:28.907Z,81.87
2017-11-25T22:19:58.150Z,59.10
2017-11-25T22:22:26.531Z,72.47
2017-11-25T22:24:55.608Z,79.30
2017-11-25T22:27:23.905Z,74.07
2017-11-25T22:29:52.227Z,76.17
2017-11-25T22:32:20.551Z,89.17
2017-11-25T22:34:48.836Z,67.80
2017-11-25T22:37:17.916Z,70.63
2017-11-25T22:39:46.193Z,63.47
2017-11-25T22:42:14.500Z,77.20
2017-11-25T22:44:43.742Z,68.17
2017-11-25T22:47:12.068Z,60.43
2017-11-25T22:49:40.371Z,56.80
2017-11-25T22:52:08.729Z,73.00
2017-11-25T22:54:37.067Z,66.17
2017-11-25T22:57:06.136Z,89.07
2017-11-25T22:59:35.266Z,56.67
2017-11-25T23:02:03.552Z,73.50
2017-11-25T23:04:31.892Z,83.03
2017-11-25T23:07:00.183Z,64.23
2017-11-25T23:09:29.271Z,68.57
2017-11-25T23:11:58.363Z,60.87
2017-11-25T23:14:26.678Z,69.93
2017-11-25T23:16:54.979Z,70.47
2017-11-25T23:19:23.317Z,64.27
2017-11-25T23:21:52.373Z,71.37
2017-11-25T23:24:20.791Z,65.57
2017-11-25T23:26:49.888Z,65.23
2017-11-25T23:29:18.240Z,75.93
2017-11-25T23:31:46.576Z,54.20
2017-11-25T23:34:15.649Z,60.47
2017-11-25T23:36:43.969Z,85.37
2017-11-25T23:39:12.272Z,60.77
2017-11-25T23:41:40.581Z,76.57
2017-11-25T23:44:08.888Z,69.83
2017-11-25T23:46:37.276Z,75.80
2017-11-25T23:49:05.579Z,62.43
2017-11-25T23:51:33.910Z,60.97
2017-11-25T23:54:02.223Z,73.13
2017-11-25T23:56:30.514Z,32.40
2017-11-25T23:58:59.603Z,28.80
